Terminal Aerodrome Forecast
Issued by NWS

Home | Current Version | Previous Version | Text Only | Print | Product List | Glossary On
Versions: 1 2 3 4 5 6 7 8 9 10 11 12
799
FTUS42 TJSJ 231739
TAFJPS
TAF
TJPS 231739Z 2318/2418 14015KT P6SM VCSH SCT030
     FM232300 05005KT P6SM FEW060
     FM241400 13015KT P6SM FEW030
      AMD NOT SKED TIL 240300=

USA.gov is the U.S. government's official web portal to all federal, state and local government web resources and services.